createdAt,value
2019-02-22T00:00:56.294Z,59.50
2019-02-22T00:03:24.950Z,61.17
2019-02-22T00:05:53.602Z,65.30
2019-02-22T00:08:22.255Z,57.60
2019-02-22T00:10:50.958Z,63.30
2019-02-22T00:13:19.627Z,59.70
2019-02-22T00:15:48.251Z,62.10
2019-02-22T00:18:16.871Z,66.10
2019-02-22T00:20:45.510Z,58.40
2019-02-22T00:23:14.160Z,63.27
2019-02-22T00:25:42.786Z,62.10
2019-02-22T00:28:11.409Z,63.93
2019-02-22T00:30:40.051Z,61.73
2019-02-22T00:33:08.724Z,70.83
2019-02-22T00:35:37.367Z,61.60
2019-02-22T00:38:06.259Z,66.80
2019-02-22T00:40:34.881Z,63.03
2019-02-22T00:43:03.561Z,65.20
2019-02-22T00:45:32.164Z,61.93
2019-02-22T00:48:00.795Z,60.50
2019-02-22T00:50:29.421Z,65.60
2019-02-22T00:52:58.062Z,65.73
2019-02-22T00:55:26.699Z,59.53
2019-02-22T00:57:55.341Z,64.37
2019-02-22T01:00:23.963Z,61.40
2019-02-22T01:02:52.627Z,62.90
2019-02-22T01:05:21.395Z,65.83
2019-02-22T01:07:50.181Z,65.27
2019-02-22T01:10:18.813Z,64.33
2019-02-22T01:12:47.479Z,69.13
2019-02-22T01:15:16.112Z,62.33
2019-02-22T01:17:44.880Z,68.70
2019-02-22T01:20:13.508Z,71.47
2019-02-22T01:22:42.442Z,69.40
2019-02-22T01:25:11.083Z,69.30
2019-02-22T01:27:39.811Z,71.90
2019-02-22T01:30:08.828Z,68.60
2019-02-22T01:32:37.746Z,62.00
2019-02-22T01:35:06.505Z,71.00
2019-02-22T01:37:35.220Z,73.73
2019-02-22T01:40:04.049Z,67.00
2019-02-22T01:42:32.667Z,76.47
2019-02-22T01:45:01.439Z,78.37
2019-02-22T01:47:30.325Z,85.23
2019-02-22T01:49:58.943Z,73.50
2019-02-22T01:52:27.604Z,70.80
2019-02-22T01:54:56.248Z,71.27
2019-02-22T01:57:24.875Z,75.00
2019-02-22T01:59:53.519Z,74.47
2019-02-22T02:02:22.171Z,69.43
2019-02-22T02:04:50.826Z,66.10
2019-02-22T02:07:19.716Z,71.80
2019-02-22T02:09:48.382Z,79.10
2019-02-22T02:12:17.088Z,68.53
2019-02-22T02:14:45.995Z,73.60
2019-02-22T02:17:14.683Z,72.40
2019-02-22T02:19:43.363Z,71.90
2019-02-22T02:22:12.010Z,74.33
2019-02-22T02:24:40.663Z,69.57
2019-02-22T02:27:09.298Z,76.13
2019-02-22T02:29:37.952Z,71.33
2019-02-22T02:32:06.824Z,80.53
2019-02-22T02:34:35.483Z,78.20
2019-02-22T02:37:04.206Z,80.63
2019-02-22T02:39:32.841Z,68.40
2019-02-22T02:42:01.469Z,78.20
2019-02-22T02:44:30.119Z,73.60
2019-02-22T02:46:58.749Z,73.70
2019-02-22T02:49:27.386Z,81.37
2019-02-22T02:51:55.987Z,74.47
2019-02-22T02:54:24.616Z,82.27
2019-02-22T02:56:53.242Z,80.50
2019-02-22T02:59:21.886Z,81.63
2019-02-22T03:01:50.498Z,83.70
2019-02-22T03:04:19.141Z,84.70
2019-02-22T03:06:59.241Z,83.57
2019-02-22T03:09:27.874Z,81.17
2019-02-22T03:11:56.500Z,88.03
2019-02-22T03:14:25.164Z,86.07
2019-02-22T03:16:53.784Z,85.80
2019-02-22T03:19:22.432Z,85.30
2019-02-22T03:21:51.048Z,86.73
2019-02-22T03:24:19.728Z,88.63
2019-02-22T03:26:48.382Z,85.63
2019-02-22T03:29:17.024Z,88.93
2019-02-22T03:31:45.655Z,81.60
2019-02-22T03:34:14.284Z,81.63
2019-02-22T03:36:42.909Z,83.47
2019-02-22T03:39:11.545Z,88.47
2019-02-22T03:41:40.182Z,97.13
2019-02-22T03:44:08.910Z,87.17
2019-02-22T03:46:37.519Z,85.33
2019-02-22T03:49:06.160Z,90.80
2019-02-22T03:51:34.764Z,89.50
2019-02-22T03:54:04.299Z,90.73
2019-02-22T03:56:32.927Z,84.77
2019-02-22T03:59:01.607Z,89.80
2019-02-22T04:01:30.334Z,87.33
2019-02-22T04:03:59.127Z,111.57
2019-02-22T04:06:27.774Z,81.57
2019-02-22T04:08:56.399Z,88.10
2019-02-22T04:11:25.140Z,83.33
2019-02-22T04:13:54.074Z,87.13
2019-02-22T04:16:23.032Z,85.83
2019-02-22T04:18:51.777Z,93.20
2019-02-22T04:21:20.477Z,90.00
2019-02-22T04:23:49.100Z,85.03
2019-02-22T04:26:18.000Z,78.07
2019-02-22T04:28:46.611Z,86.50
2019-02-22T04:31:15.465Z,80.00
2019-02-22T04:33:44.212Z,84.03
2019-02-22T04:36:13.011Z,81.20
2019-02-22T04:38:41.629Z,81.03
2019-02-22T04:41:10.299Z,90.70
2019-02-22T04:43:38.930Z,83.40
2019-02-22T04:46:07.637Z,84.53
2019-02-22T04:48:36.251Z,74.70
2019-02-22T04:51:05.141Z,99.10
2019-02-22T04:53:33.794Z,87.77
2019-02-22T04:56:02.466Z,95.97
2019-02-22T04:58:31.085Z,92.40
2019-02-22T05:00:59.736Z,87.33
2019-02-22T05:03:28.355Z,87.37
2019-02-22T05:05:57.321Z,85.10
2019-02-22T05:08:25.958Z,100.47
2019-02-22T05:10:55.565Z,98.03
2019-02-22T05:13:24.248Z,96.23
2019-02-22T05:15:52.879Z,91.90
2019-02-22T05:18:21.496Z,84.73
2019-02-22T05:20:50.140Z,90.03
2019-02-22T05:23:18.763Z,86.27
2019-02-22T05:25:47.412Z,89.97
2019-02-22T05:28:16.059Z,97.60
2019-02-22T05:30:44.714Z,87.90
2019-02-22T05:33:13.644Z,90.30
2019-02-22T05:35:42.317Z,95.67
2019-02-22T05:38:10.927Z,81.97
2019-02-22T05:40:39.910Z,83.87
2019-02-22T05:43:08.552Z,88.80
2019-02-22T05:45:37.524Z,93.47
2019-02-22T05:48:06.150Z,90.97
2019-02-22T05:50:34.850Z,89.50
2019-02-22T05:53:03.475Z,99.00
2019-02-22T05:55:32.521Z,86.57
2019-02-22T05:58:01.515Z,93.60
2019-02-22T06:00:30.163Z,85.70
2019-02-22T06:02:59.051Z,90.23
2019-02-22T06:05:27.976Z,81.10
2019-02-22T06:07:56.592Z,94.77
2019-02-22T06:10:25.487Z,84.37
2019-02-22T06:12:54.100Z,86.10
2019-02-22T06:15:22.779Z,82.83
2019-02-22T06:17:51.672Z,79.00
2019-02-22T06:20:20.359Z,80.47
2019-02-22T06:22:48.986Z,84.50
2019-02-22T06:25:17.617Z,88.27
2019-02-22T06:27:46.231Z,86.10
2019-02-22T06:30:14.867Z,95.37
2019-02-22T06:32:43.509Z,88.97
2019-02-22T06:35:12.340Z,79.80
2019-02-22T06:37:41.014Z,89.47
2019-02-22T06:40:09.847Z,89.10
2019-02-22T06:42:45.704Z,84.87
2019-02-22T06:45:09.082Z,87.00
2019-02-22T06:47:37.737Z,80.60
2019-02-22T06:50:06.731Z,89.50
2019-02-22T06:52:35.436Z,90.70
2019-02-22T06:55:04.242Z,85.57
2019-02-22T06:57:32.879Z,83.80
2019-02-22T07:00:01.511Z,82.40
2019-02-22T07:02:30.139Z,76.70
2019-02-22T07:04:58.777Z,65.70
2019-02-22T07:07:27.433Z,67.87
2019-02-22T07:09:56.084Z,72.93
2019-02-22T07:12:30.595Z,70.27
2019-02-22T07:14:59.260Z,78.03
2019-02-22T07:17:27.903Z,69.03
2019-02-22T07:19:56.560Z,66.63
2019-02-22T07:22:25.268Z,72.37
2019-02-22T07:24:53.892Z,71.77
2019-02-22T07:27:22.577Z,75.83
2019-02-22T07:29:51.251Z,66.60
2019-02-22T07:32:19.920Z,71.37
2019-02-22T07:34:48.524Z,55.53
2019-02-22T07:37:17.381Z,69.90
2019-02-22T07:39:46.096Z,63.83
2019-02-22T07:42:14.724Z,65.83
2019-02-22T07:44:43.364Z,65.00
2019-02-22T07:47:12.304Z,66.20
2019-02-22T07:49:41.040Z,64.10
2019-02-22T07:52:09.687Z,58.73
2019-02-22T07:54:38.326Z,66.77
2019-02-22T07:57:06.952Z,70.30
2019-02-22T07:59:35.599Z,63.80
2019-02-22T08:02:06.036Z,56.17
2019-02-22T08:04:35.042Z,52.37
2019-02-22T08:07:03.737Z,62.53
2019-02-22T08:09:32.376Z,58.73
2019-02-22T08:12:01.302Z,58.63
2019-02-22T08:14:29.943Z,59.40
2019-02-22T08:16:58.828Z,49.80
2019-02-22T08:19:27.587Z,57.20
2019-02-22T08:21:56.218Z,62.30
2019-02-22T08:24:25.982Z,66.57
2019-02-22T08:26:54.805Z,66.10
2019-02-22T08:29:23.686Z,65.67
2019-02-22T08:31:52.351Z,57.40
2019-02-22T08:34:21.051Z,57.13
2019-02-22T08:36:49.669Z,64.23
2019-02-22T08:39:18.323Z,61.17
2019-02-22T08:41:47.092Z,54.67
2019-02-22T08:44:15.783Z,53.87
2019-02-22T08:46:44.410Z,52.80
2019-02-22T08:49:13.112Z,49.00
2019-02-22T08:51:41.750Z,51.30
2019-02-22T08:54:10.418Z,49.47
2019-02-22T08:56:39.127Z,50.63
2019-02-22T08:59:07.785Z,57.93
2019-02-22T09:01:36.393Z,68.20
2019-02-22T09:04:05.031Z,40.00
2019-02-22T09:06:33.663Z,43.40
2019-02-22T09:09:02.327Z,44.23
2019-02-22T09:11:30.981Z,41.67
2019-02-22T09:13:59.615Z,34.80
2019-02-22T09:16:28.529Z,38.10
2019-02-22T09:18:57.184Z,34.57
2019-02-22T09:21:25.804Z,37.87
2019-02-22T09:23:54.462Z,35.03
2019-02-22T09:26:23.091Z,35.37
2019-02-22T09:28:51.777Z,33.73
2019-02-22T09:31:20.412Z,40.33
2019-02-22T09:33:49.060Z,38.67
2019-02-22T09:36:17.688Z,38.80
2019-02-22T09:38:46.336Z,41.70
2019-02-22T09:41:15.005Z,35.93
2019-02-22T09:43:54.309Z,33.37
2019-02-22T09:46:14.628Z,34.53
2019-02-22T09:48:43.359Z,37.70
2019-02-22T09:51:12.031Z,32.80
2019-02-22T09:53:40.657Z,33.70
2019-02-22T09:56:09.294Z,26.47
2019-02-22T09:58:37.925Z,32.93
2019-02-22T10:01:06.548Z,33.93
2019-02-22T10:03:35.557Z,26.90
2019-02-22T10:06:04.513Z,31.13
2019-02-22T10:08:33.342Z,24.93
2019-02-22T10:11:02.008Z,21.93
2019-02-22T10:13:30.637Z,18.13
2019-02-22T10:15:59.282Z,20.03
2019-02-22T10:18:27.923Z,20.63
2019-02-22T10:20:56.545Z,16.53
2019-02-22T10:23:25.183Z,12.43
2019-02-22T10:25:54.083Z,11.80
2019-02-22T10:28:22.832Z,14.80
2019-02-22T10:30:51.489Z,11.90
2019-02-22T10:33:20.104Z,11.17
2019-02-22T10:35:48.715Z,11.10
2019-02-22T10:38:17.367Z,13.37
2019-02-22T10:40:46.108Z,14.93
2019-02-22T10:43:14.738Z,16.47
2019-02-22T10:45:43.363Z,15.30
2019-02-22T10:48:12.008Z,15.07
2019-02-22T10:50:40.647Z,8.93
2019-02-22T10:53:09.274Z,9.63
2019-02-22T10:55:37.928Z,7.80
2019-02-22T10:58:06.551Z,9.80
2019-02-22T11:00:35.253Z,8.50
2019-02-22T11:03:03.906Z,10.67
2019-02-22T11:05:32.708Z,10.70
2019-02-22T11:08:01.332Z,12.73
2019-02-22T11:10:29.979Z,15.90
2019-02-22T11:12:58.627Z,13.67
2019-02-22T11:15:27.613Z,13.57
2019-02-22T11:17:56.257Z,22.33
2019-02-22T11:20:24.912Z,12.50
2019-02-22T11:22:53.612Z,13.33
2019-02-22T11:25:22.299Z,12.93
2019-02-22T11:27:51.182Z,13.47
2019-02-22T11:30:19.901Z,11.87
2019-02-22T11:32:48.513Z,15.77
2019-02-22T11:35:17.376Z,15.13
2019-02-22T11:37:46.235Z,17.17
2019-02-22T11:40:14.959Z,13.20
2019-02-22T11:42:43.605Z,16.23
2019-02-22T11:45:12.475Z,13.10
2019-02-22T11:47:41.804Z,13.90
2019-02-22T11:50:10.545Z,17.77
2019-02-22T11:52:39.167Z,20.87
2019-02-22T11:55:08.197Z,15.40
2019-02-22T11:57:36.846Z,21.93
2019-02-22T12:00:08.706Z,21.33
2019-02-22T12:02:37.339Z,15.10
2019-02-22T12:05:06.040Z,14.70
2019-02-22T12:07:34.656Z,16.03
2019-02-22T12:10:03.412Z,18.10
2019-02-22T12:12:32.043Z,14.87
2019-02-22T12:15:00.800Z,16.73
2019-02-22T12:17:29.431Z,19.13
2019-02-22T12:19:58.163Z,16.20
2019-02-22T12:22:27.183Z,16.20
2019-02-22T12:24:55.835Z,20.77
2019-02-22T12:27:24.739Z,17.17
2019-02-22T12:29:53.975Z,16.90
2019-02-22T12:32:22.623Z,17.63
2019-02-22T12:34:51.311Z,12.90
2019-02-22T12:37:20.126Z,15.93
2019-02-22T12:39:48.927Z,13.43
2019-02-22T12:42:17.826Z,16.33
2019-02-22T12:44:46.449Z,14.70
2019-02-22T12:47:15.559Z,17.73
2019-02-22T12:49:44.453Z,12.03
2019-02-22T12:52:13.108Z,11.17
2019-02-22T12:54:41.770Z,23.87
2019-02-22T12:57:10.399Z,18.47
2019-02-22T12:59:39.070Z,15.97
2019-02-22T13:02:07.747Z,13.30
2019-02-22T13:04:36.393Z,12.30
2019-02-22T13:07:05.032Z,14.40
2019-02-22T13:09:36.875Z,15.73
2019-02-22T13:12:13.663Z,12.43
2019-02-22T13:14:34.383Z,16.93
2019-02-22T13:17:03.009Z,11.53
2019-02-22T13:19:31.639Z,9.60
2019-02-22T13:22:00.280Z,14.50
2019-02-22T13:24:28.949Z,13.03
2019-02-22T13:26:57.623Z,15.90
2019-02-22T13:29:26.308Z,13.00
2019-02-22T13:31:55.794Z,16.57
2019-02-22T13:34:24.758Z,19.00
2019-02-22T13:36:53.419Z,13.87
2019-02-22T13:39:22.054Z,18.60
2019-02-22T13:41:50.673Z,19.10
2019-02-22T13:44:19.591Z,12.13
2019-02-22T13:46:48.265Z,17.67
2019-02-22T13:49:16.968Z,15.40
2019-02-22T13:51:45.586Z,12.67
2019-02-22T13:54:14.260Z,12.83
2019-02-22T13:56:42.876Z,13.27
2019-02-22T13:59:11.939Z,14.33
2019-02-22T14:01:40.675Z,13.20
2019-02-22T14:04:09.411Z,15.93
2019-02-22T14:06:38.111Z,15.63
2019-02-22T14:09:07.131Z,13.50
2019-02-22T14:11:35.748Z,14.93
2019-02-22T14:14:04.479Z,16.33
2019-02-22T14:16:33.088Z,14.77
2019-02-22T14:19:01.724Z,17.10
2019-02-22T14:21:30.351Z,18.73
2019-02-22T14:23:59.005Z,22.53
2019-02-22T14:26:27.664Z,21.20
2019-02-22T14:28:56.326Z,19.00
2019-02-22T14:31:24.967Z,17.37
2019-02-22T14:33:53.607Z,18.57
2019-02-22T14:36:22.695Z,21.37
2019-02-22T14:38:51.642Z,26.13
2019-02-22T14:41:20.365Z,31.40
2019-02-22T14:43:49.280Z,21.67
2019-02-22T14:46:25.535Z,24.00
2019-02-22T14:48:48.292Z,23.00
2019-02-22T14:51:17.135Z,23.73
2019-02-22T14:53:45.777Z,21.57
2019-02-22T14:56:14.423Z,20.20
2019-02-22T14:58:43.462Z,28.93
2019-02-22T15:01:12.487Z,23.43
2019-02-22T15:03:41.175Z,23.90
2019-02-22T15:06:09.846Z,27.17
2019-02-22T15:08:38.500Z,23.60
2019-02-22T15:11:07.161Z,35.87
2019-02-22T15:13:35.767Z,40.70
2019-02-22T15:16:22.544Z,42.50
2019-02-22T15:18:51.169Z,57.43
2019-02-22T15:21:19.811Z,52.63
2019-02-22T15:23:48.596Z,49.80
2019-02-22T15:26:17.288Z,43.73
2019-02-22T15:28:46.007Z,53.00
2019-02-22T15:31:14.682Z,32.87
2019-02-22T15:33:43.321Z,24.73
2019-02-22T15:36:11.967Z,29.13
2019-02-22T15:38:40.888Z,24.17
2019-02-22T15:41:10.148Z,34.10
2019-02-22T15:43:38.943Z,37.20
2019-02-22T15:46:12.323Z,36.83
2019-02-22T15:48:38.701Z,30.67
2019-02-22T15:51:07.563Z,32.77
2019-02-22T15:53:36.262Z,27.93
2019-02-22T15:56:04.899Z,33.93
2019-02-22T15:58:33.921Z,32.40
2019-02-22T16:01:02.594Z,35.67
2019-02-22T16:03:50.831Z,43.00
2019-02-22T16:06:19.511Z,39.97
2019-02-22T16:08:48.141Z,46.27
2019-02-22T16:11:17.921Z,48.20
2019-02-22T16:13:46.540Z,45.20
2019-02-22T16:16:22.898Z,42.77
2019-02-22T16:18:45.644Z,44.07
2019-02-22T16:21:14.316Z,41.90
2019-02-22T16:23:42.956Z,39.47
2019-02-22T16:26:11.639Z,37.17
2019-02-22T16:28:40.286Z,40.23
2019-02-22T16:31:09.096Z,36.20
2019-02-22T16:33:37.720Z,56.50
2019-02-22T16:36:06.351Z,44.70
2019-02-22T16:38:35.044Z,46.37
2019-02-22T16:41:03.690Z,45.90
2019-02-22T16:43:32.306Z,46.60
2019-02-22T16:46:00.975Z,47.17
2019-02-22T16:48:29.711Z,50.60
2019-02-22T16:50:58.395Z,50.10
2019-02-22T16:53:27.039Z,47.80
2019-02-22T16:55:55.739Z,43.83
2019-02-22T16:58:24.409Z,42.60
2019-02-22T17:00:53.054Z,46.63
2019-02-22T17:03:21.677Z,44.73
2019-02-22T17:05:50.657Z,39.23
2019-02-22T17:08:19.625Z,37.03
2019-02-22T17:10:48.294Z,38.97
2019-02-22T17:13:17.226Z,32.07
2019-02-22T17:15:45.884Z,33.45
2019-02-22T17:18:14.531Z,33.60
2019-02-22T17:20:43.214Z,31.17
2019-02-22T17:23:11.853Z,29.92
2019-02-22T17:25:40.782Z,33.98
2019-02-22T17:28:09.464Z,33.35
2019-02-22T17:30:38.111Z,37.58
2019-02-22T17:33:06.846Z,42.08
2019-02-22T17:35:35.492Z,42.30
2019-02-22T17:38:04.201Z,42.08
2019-02-22T17:40:32.904Z,40.67
2019-02-22T17:43:01.540Z,41.28
2019-02-22T17:45:30.166Z,39.67
2019-02-22T17:47:58.830Z,42.62
2019-02-22T17:50:27.472Z,43.23
2019-02-22T17:52:56.236Z,50.80
2019-02-22T17:55:24.868Z,49.55
2019-02-22T17:57:53.515Z,41.37
2019-02-22T18:00:22.875Z,48.52
2019-02-22T18:02:51.543Z,45.88
2019-02-22T18:05:20.179Z,47.55
2019-02-22T18:07:48.864Z,42.40
2019-02-22T18:10:17.487Z,44.50
2019-02-22T18:12:46.134Z,49.20
2019-02-22T18:15:14.909Z,45.48
2019-02-22T18:17:43.791Z,45.00
2019-02-22T18:20:12.425Z,59.45
2019-02-22T18:22:41.083Z,50.48
2019-02-22T18:25:09.811Z,52.05
2019-02-22T18:27:38.456Z,49.05
2019-02-22T18:30:08.693Z,44.42
2019-02-22T18:32:37.360Z,46.13
2019-02-22T18:35:06.228Z,43.45
2019-02-22T18:37:34.887Z,47.62
2019-02-22T18:40:03.570Z,42.88
2019-02-22T18:42:32.268Z,37.78
2019-02-22T18:45:00.947Z,44.95
2019-02-22T18:47:29.623Z,43.05
2019-02-22T18:49:58.265Z,42.33
2019-02-22T18:52:26.934Z,41.13
2019-02-22T18:54:55.595Z,41.35
2019-02-22T18:57:24.238Z,41.53
2019-02-22T18:59:52.872Z,39.50
2019-02-22T19:02:21.558Z,39.60
2019-02-22T19:04:50.176Z,38.40
2019-02-22T19:07:18.815Z,35.88
2019-02-22T19:09:47.450Z,36.23
2019-02-22T19:12:16.127Z,35.25
2019-02-22T19:14:44.776Z,41.58
2019-02-22T19:17:13.435Z,38.05
2019-02-22T19:19:42.075Z,39.13
2019-02-22T19:22:10.748Z,36.88
2019-02-22T19:24:39.395Z,38.25
2019-02-22T19:27:08.024Z,43.17
2019-02-22T19:29:36.947Z,38.58
2019-02-22T19:32:05.607Z,40.25
2019-02-22T19:34:34.267Z,42.48
2019-02-22T19:37:02.920Z,36.53
2019-02-22T19:39:31.827Z,40.12
2019-02-22T19:42:00.517Z,42.35
2019-02-22T19:44:29.126Z,37.80
2019-02-22T19:46:57.775Z,41.00
2019-02-22T19:49:26.384Z,35.00
2019-02-22T19:51:55.023Z,45.08
2019-02-22T19:54:23.672Z,40.15
2019-02-22T19:56:52.366Z,40.73
2019-02-22T19:59:21.011Z,44.42
2019-02-22T20:01:49.967Z,39.08
2019-02-22T20:04:18.602Z,37.05
2019-02-22T20:06:47.267Z,41.33
2019-02-22T20:09:15.924Z,41.92
2019-02-22T20:11:44.603Z,45.58
2019-02-22T20:14:13.238Z,39.42
2019-02-22T20:16:41.904Z,39.83
2019-02-22T20:19:10.543Z,37.65
2019-02-22T20:21:39.220Z,46.60
2019-02-22T20:24:08.165Z,42.67
2019-02-22T20:26:36.831Z,45.00
2019-02-22T20:29:05.475Z,42.98
2019-02-22T20:31:34.141Z,51.15
2019-02-22T20:34:02.893Z,41.77
2019-02-22T20:36:31.573Z,46.50
2019-02-22T20:39:00.229Z,47.90
2019-02-22T20:41:28.883Z,47.65
2019-02-22T20:43:57.537Z,43.75
2019-02-22T20:46:26.350Z,40.00
2019-02-22T20:49:00.715Z,50.35
2019-02-22T20:51:25.385Z,43.80
2019-02-22T20:53:54.023Z,47.62
2019-02-22T20:56:22.651Z,42.75
2019-02-22T20:58:51.347Z,46.40
2019-02-22T21:01:20.043Z,42.67
2019-02-22T21:03:48.707Z,42.90
2019-02-22T21:06:17.400Z,47.43
2019-02-22T21:08:46.343Z,43.05
2019-02-22T21:11:15.005Z,42.93
2019-02-22T21:13:43.987Z,40.90
2019-02-22T21:16:12.888Z,45.48
2019-02-22T21:18:41.545Z,45.88
2019-02-22T21:21:10.207Z,42.78
2019-02-22T21:23:38.868Z,43.58
2019-02-22T21:26:07.542Z,49.73
2019-02-22T21:28:36.188Z,41.92
2019-02-22T21:31:04.904Z,41.18
2019-02-22T21:33:33.553Z,45.92
2019-02-22T21:36:02.189Z,43.83
2019-02-22T21:38:30.872Z,42.08
2019-02-22T21:40:59.487Z,45.35
2019-02-22T21:43:28.143Z,41.53
2019-02-22T21:45:56.804Z,44.83
2019-02-22T21:48:27.818Z,52.67
2019-02-22T21:50:55.840Z,48.30
2019-02-22T21:53:25.210Z,44.75
2019-02-22T21:55:53.973Z,46.48
2019-02-22T21:58:22.613Z,43.40
2019-02-22T22:00:51.505Z,45.23
2019-02-22T22:03:20.159Z,42.20
2019-02-22T22:05:48.791Z,40.85
2019-02-22T22:08:17.502Z,42.17
2019-02-22T22:10:46.116Z,40.92
2019-02-22T22:13:14.767Z,42.73
2019-02-22T22:15:43.385Z,38.25
2019-02-22T22:18:12.034Z,37.53
2019-02-22T22:20:40.692Z,43.87
2019-02-22T22:23:09.387Z,43.73
2019-02-22T22:25:38.018Z,39.48
2019-02-22T22:28:07.223Z,40.10
2019-02-22T22:30:35.846Z,40.05
2019-02-22T22:33:04.487Z,36.42
2019-02-22T22:35:33.145Z,40.17
2019-02-22T22:38:02.077Z,34.03
2019-02-22T22:40:31.227Z,33.60
2019-02-22T22:42:59.862Z,35.38
2019-02-22T22:45:28.519Z,37.40
2019-02-22T22:47:57.316Z,34.98
2019-02-22T22:50:26.182Z,30.10
2019-02-22T22:52:54.830Z,32.28
2019-02-22T22:55:23.471Z,36.20
2019-02-22T22:57:52.121Z,34.30
2019-02-22T23:00:49.842Z,38.38
2019-02-22T23:03:18.752Z,42.45
2019-02-22T23:05:47.456Z,36.40
2019-02-22T23:08:16.111Z,33.05
2019-02-22T23:10:44.839Z,35.48
2019-02-22T23:13:13.515Z,33.40
2019-02-22T23:15:42.167Z,31.33
2019-02-22T23:18:10.815Z,32.03
2019-02-22T23:20:39.506Z,31.30
2019-02-22T23:23:08.167Z,31.50
2019-02-22T23:25:36.812Z,29.80
2019-02-22T23:28:05.453Z,32.25
2019-02-22T23:30:34.160Z,32.20
2019-02-22T23:33:02.897Z,30.30
2019-02-22T23:35:31.643Z,30.37
2019-02-22T23:38:00.325Z,28.80
2019-02-22T23:40:28.973Z,29.55
2019-02-22T23:42:57.607Z,31.85
2019-02-22T23:45:26.256Z,29.07
2019-02-22T23:47:54.880Z,33.05
2019-02-22T23:50:23.539Z,29.30
2019-02-22T23:52:52.199Z,35.75
2019-02-22T23:55:20.847Z,30.82
2019-02-22T23:57:49.503Z,30.40
